Bismarck, Arkansas
Current Conditions -  °F | °C
As of 8:53 AM on Saturday 25 Oct 2014 (Local Time) from KHOT Reporting Station
Clear Clear  
Wind Chill: 60°   Ceiling: Unl
Heat Index: 60°   Visibility: 7mi
Dew Point: 57°   Wind: 5mph
Humidity: 90%   Direction: 300°WNW
Pressure: 30.15"   Gusts: NA
Location:  34.32°N, 93.17°W
Report Text: KHOT 251353Z AUTO 30004KT 7SM CLR 16/14 A3015 RMK AO2 SLP205 T01560139
Loading
Personal Weather Stations






























Interactive Weather Map
Tropical Storm Tracking
New forecast layout! Learn more

10-Day Weather Forecast

Advertisements
Track Severe Weather on mobile